createdAt,value
2019-03-26T00:00:08.236Z,76.89
2019-03-26T00:02:41.001Z,77.58
2019-03-26T00:05:12.279Z,76.95
2019-03-26T00:07:43.408Z,77.15
2019-03-26T00:10:14.552Z,77.35
2019-03-26T00:12:45.761Z,77.41
2019-03-26T00:15:17.009Z,77.21
2019-03-26T00:17:48.281Z,77.21
2019-03-26T00:20:19.858Z,77.65
2019-03-26T00:22:51.086Z,77.31
2019-03-26T00:25:22.227Z,77.25
2019-03-26T00:27:53.372Z,76.92
2019-03-26T00:30:24.511Z,77.45
2019-03-26T00:32:55.780Z,77.84
2019-03-26T00:35:26.978Z,77.91
2019-03-26T00:37:58.246Z,77.31
2019-03-26T00:40:29.463Z,76.94
2019-03-26T00:43:00.755Z,77.74
2019-03-26T00:45:34.623Z,78.07
2019-03-26T00:48:05.860Z,77.91
2019-03-26T00:50:37.070Z,78.22
2019-03-26T00:53:08.278Z,78.48
2019-03-26T00:55:39.661Z,78.05
2019-03-26T00:58:11.012Z,77.65
2019-03-26T01:00:42.820Z,77.38
2019-03-26T01:03:14.143Z,77.55
2019-03-26T01:05:45.265Z,77.66
2019-03-26T01:08:16.523Z,78.10
2019-03-26T01:10:47.720Z,78.24
2019-03-26T01:13:19.066Z,78.56
2019-03-26T01:15:50.526Z,77.89
2019-03-26T01:18:21.783Z,78.39
2019-03-26T01:20:53.153Z,78.39
2019-03-26T01:23:24.381Z,78.44
2019-03-26T01:25:55.704Z,78.73
2019-03-26T01:28:26.925Z,78.54
2019-03-26T01:30:58.162Z,79.16
2019-03-26T01:33:29.410Z,78.92
2019-03-26T01:36:00.672Z,78.92
2019-03-26T01:38:31.757Z,78.46
2019-03-26T01:41:03.419Z,78.35
2019-03-26T01:43:34.666Z,78.59
2019-03-26T01:46:06.021Z,78.36
2019-03-26T01:48:37.353Z,78.48
2019-03-26T01:51:09.119Z,78.59
2019-03-26T01:53:41.016Z,79.03
2019-03-26T01:56:13.104Z,79.37
2019-03-26T01:58:45.179Z,78.73
2019-03-26T02:01:16.450Z,78.42
2019-03-26T02:03:47.747Z,79.16
2019-03-26T02:06:18.954Z,79.06
2019-03-26T02:08:50.266Z,78.80
2019-03-26T02:11:21.499Z,78.29
2019-03-26T02:13:52.578Z,79.29
2019-03-26T02:16:23.779Z,78.76
2019-03-26T02:18:55.007Z,78.30
2019-03-26T02:21:26.246Z,78.70
2019-03-26T02:23:57.542Z,78.84
2019-03-26T02:26:28.804Z,78.44
2019-03-26T02:29:00.069Z,78.40
2019-03-26T02:31:31.390Z,78.71
2019-03-26T02:34:02.625Z,78.07
2019-03-26T02:36:33.838Z,78.68
2019-03-26T02:39:06.601Z,79.04
2019-03-26T02:41:38.284Z,78.76
2019-03-26T02:44:09.714Z,78.97
2019-03-26T02:46:40.963Z,78.55
2019-03-26T02:49:13.298Z,78.92
2019-03-26T02:51:44.508Z,78.40
2019-03-26T02:54:15.829Z,78.79
2019-03-26T02:56:46.971Z,78.78
2019-03-26T02:59:18.273Z,77.88
2019-03-26T03:01:49.858Z,78.52
2019-03-26T03:04:21.069Z,78.25
2019-03-26T03:06:52.395Z,77.85
2019-03-26T03:09:24.954Z,78.21
2019-03-26T03:11:56.327Z,78.48
2019-03-26T03:14:27.661Z,78.20
2019-03-26T03:16:59.883Z,78.81
2019-03-26T03:19:30.419Z,78.81
2019-03-26T03:22:01.447Z,78.00
2019-03-26T03:24:32.632Z,78.20
2019-03-26T03:27:03.846Z,78.96
2019-03-26T03:29:35.116Z,79.03
2019-03-26T03:32:06.477Z,79.05
2019-03-26T03:34:37.823Z,78.86
2019-03-26T03:37:09.047Z,78.60
2019-03-26T03:39:40.265Z,78.69
2019-03-26T03:42:11.508Z,78.91
2019-03-26T03:44:42.711Z,79.44
2019-03-26T03:47:13.950Z,78.62
2019-03-26T03:49:45.140Z,78.76
2019-03-26T03:52:16.456Z,78.38
2019-03-26T03:54:47.661Z,78.00
2019-03-26T03:57:19.138Z,78.59
2019-03-26T03:59:50.385Z,78.42
2019-03-26T04:02:21.707Z,77.78
2019-03-26T04:04:52.863Z,78.45
2019-03-26T04:07:24.207Z,77.98
2019-03-26T04:09:55.583Z,78.30
2019-03-26T04:12:26.910Z,78.62
2019-03-26T04:14:58.108Z,78.67
2019-03-26T04:17:29.343Z,78.95
2019-03-26T04:20:00.651Z,78.54
2019-03-26T04:22:31.920Z,78.37
2019-03-26T04:25:03.135Z,77.98
2019-03-26T04:27:36.082Z,78.53
2019-03-26T04:30:08.206Z,78.44
2019-03-26T04:32:38.746Z,78.70
2019-03-26T04:35:09.797Z,78.81
2019-03-26T04:37:41.061Z,79.14
2019-03-26T04:40:12.347Z,78.96
2019-03-26T04:42:43.614Z,78.63
2019-03-26T04:45:14.959Z,78.35
2019-03-26T04:47:46.210Z,78.41
2019-03-26T04:50:17.636Z,78.12
2019-03-26T04:52:49.010Z,78.44
2019-03-26T04:55:20.375Z,78.60
2019-03-26T04:57:51.802Z,78.98
2019-03-26T05:00:23.017Z,78.39
2019-03-26T05:02:54.157Z,78.34
2019-03-26T05:05:25.627Z,78.34
2019-03-26T05:07:57.039Z,78.60
2019-03-26T05:10:28.403Z,78.33
2019-03-26T05:12:59.797Z,78.27
2019-03-26T05:15:31.003Z,78.51
2019-03-26T05:18:02.309Z,78.73
2019-03-26T05:20:33.696Z,78.23
2019-03-26T05:23:08.102Z,78.23
2019-03-26T05:25:39.496Z,77.79
2019-03-26T05:28:10.821Z,76.91
2019-03-26T05:30:42.151Z,77.41
2019-03-26T05:33:13.513Z,77.56
2019-03-26T05:35:44.802Z,77.26
2019-03-26T05:38:16.099Z,77.33
2019-03-26T05:40:47.420Z,77.07
2019-03-26T05:43:18.708Z,76.37
2019-03-26T05:45:52.027Z,76.52
2019-03-26T05:48:23.433Z,75.86
2019-03-26T05:50:54.641Z,76.52
2019-03-26T05:53:25.924Z,75.88
2019-03-26T05:55:57.198Z,75.54
2019-03-26T05:58:28.544Z,75.83
2019-03-26T06:00:59.863Z,75.33
2019-03-26T06:03:31.261Z,74.26
2019-03-26T06:06:02.666Z,73.93
2019-03-26T06:08:34.124Z,72.58
2019-03-26T06:11:05.370Z,71.44
2019-03-26T06:13:36.751Z,70.94
2019-03-26T06:16:08.134Z,71.43
2019-03-26T06:18:39.479Z,70.57
2019-03-26T06:21:10.779Z,70.60
2019-03-26T06:23:43.644Z,70.42
2019-03-26T06:26:14.953Z,70.68
2019-03-26T06:28:46.376Z,70.74
2019-03-26T06:31:17.698Z,70.19
2019-03-26T06:33:49.024Z,70.76
2019-03-26T06:36:20.287Z,69.48
2019-03-26T06:38:51.546Z,68.48
2019-03-26T06:41:23.014Z,68.09
2019-03-26T06:43:55.450Z,69.12
2019-03-26T06:46:26.728Z,69.34
2019-03-26T06:48:58.121Z,68.09
2019-03-26T06:51:29.418Z,67.13
2019-03-26T06:54:00.803Z,65.93
2019-03-26T06:56:32.128Z,65.81
2019-03-26T06:59:03.532Z,65.44
2019-03-26T07:01:34.837Z,64.65
2019-03-26T07:04:06.222Z,64.21
2019-03-26T07:06:37.760Z,64.21
2019-03-26T07:09:09.143Z,64.96
2019-03-26T07:11:40.791Z,65.25
2019-03-26T07:14:12.148Z,64.71
2019-03-26T07:16:43.555Z,65.24
2019-03-26T07:19:14.969Z,64.89
2019-03-26T07:21:49.802Z,65.31
2019-03-26T07:24:19.432Z,64.52
2019-03-26T07:26:50.798Z,65.11
2019-03-26T07:29:22.255Z,65.19
2019-03-26T07:31:53.571Z,65.80
2019-03-26T07:34:24.894Z,66.94
2019-03-26T07:36:56.395Z,67.21
2019-03-26T07:39:27.708Z,67.62
2019-03-26T07:41:59.225Z,67.19
2019-03-26T07:44:30.546Z,67.23
2019-03-26T07:47:01.888Z,67.14
2019-03-26T07:49:33.192Z,66.68
2019-03-26T07:52:04.533Z,66.02
2019-03-26T07:54:35.922Z,66.20
2019-03-26T07:57:07.296Z,66.12
2019-03-26T07:59:38.652Z,66.28
2019-03-26T08:02:10.062Z,65.62
2019-03-26T08:04:41.499Z,64.90
2019-03-26T08:07:12.831Z,65.21
2019-03-26T08:09:44.141Z,65.87
2019-03-26T08:12:15.594Z,65.37
2019-03-26T08:14:46.959Z,64.27
2019-03-26T08:17:18.292Z,64.59
2019-03-26T08:19:49.632Z,63.87
2019-03-26T08:22:21.058Z,64.27
2019-03-26T08:24:52.469Z,64.71
2019-03-26T08:27:23.809Z,64.16
2019-03-26T08:29:55.143Z,63.18
2019-03-26T08:32:26.451Z,62.78
2019-03-26T08:34:57.808Z,63.41
2019-03-26T08:37:29.180Z,63.29
2019-03-26T08:40:00.503Z,63.39
2019-03-26T08:42:31.754Z,62.82
2019-03-26T08:45:03.122Z,62.28
2019-03-26T08:47:34.505Z,62.65
2019-03-26T08:50:08.548Z,63.46
2019-03-26T08:52:39.805Z,62.99
2019-03-26T08:55:11.657Z,62.95
2019-03-26T08:57:43.016Z,62.14
2019-03-26T09:00:14.380Z,62.83
2019-03-26T09:02:45.668Z,62.56
2019-03-26T09:05:17.111Z,61.86
2019-03-26T09:07:48.351Z,62.56
2019-03-26T09:10:19.669Z,61.68
2019-03-26T09:12:51.010Z,62.72
2019-03-26T09:15:22.377Z,63.79
2019-03-26T09:17:53.696Z,62.14
2019-03-26T09:20:25.037Z,62.15
2019-03-26T09:22:56.408Z,61.32
2019-03-26T09:25:27.752Z,61.96
2019-03-26T09:27:59.002Z,61.65
2019-03-26T09:30:30.315Z,60.95
2019-03-26T09:33:01.586Z,61.60
2019-03-26T09:35:32.974Z,60.27
2019-03-26T09:38:04.303Z,59.90
2019-03-26T09:40:35.611Z,59.15
2019-03-26T09:43:06.919Z,58.52
2019-03-26T09:45:38.196Z,57.48
2019-03-26T09:48:09.571Z,56.31
2019-03-26T09:50:40.886Z,56.64
2019-03-26T09:53:12.219Z,55.06
2019-03-26T09:55:44.941Z,54.28
2019-03-26T09:58:16.386Z,53.12
2019-03-26T10:00:49.842Z,52.76
2019-03-26T10:03:22.582Z,52.79
2019-03-26T10:05:53.873Z,52.06
2019-03-26T10:08:25.112Z,50.68
2019-03-26T10:10:56.361Z,52.41
2019-03-26T10:13:27.734Z,53.26
2019-03-26T10:15:59.238Z,52.95
2019-03-26T10:18:31.769Z,51.26
2019-03-26T10:21:03.166Z,51.05
2019-03-26T10:23:34.538Z,47.34
2019-03-26T10:26:05.962Z,47.23
2019-03-26T10:28:37.253Z,46.33
2019-03-26T10:31:08.596Z,46.09
2019-03-26T10:33:39.967Z,45.69
2019-03-26T10:36:11.350Z,45.98
2019-03-26T10:38:42.641Z,44.80
2019-03-26T10:41:14.058Z,45.91
2019-03-26T10:43:45.411Z,46.40
2019-03-26T10:46:16.780Z,47.60
2019-03-26T10:48:48.098Z,47.18
2019-03-26T10:51:19.508Z,47.76
2019-03-26T10:53:50.858Z,48.08
2019-03-26T10:56:22.223Z,47.88
2019-03-26T10:58:53.675Z,48.07
2019-03-26T11:01:25.101Z,47.28
2019-03-26T11:03:56.380Z,45.98
2019-03-26T11:06:27.710Z,45.90
2019-03-26T11:08:59.064Z,45.18
2019-03-26T11:11:30.568Z,45.26
2019-03-26T11:14:01.825Z,46.32
2019-03-26T11:16:33.157Z,45.46
2019-03-26T11:19:05.467Z,45.25
2019-03-26T11:21:36.798Z,46.28
2019-03-26T11:24:08.059Z,45.72
2019-03-26T11:26:39.399Z,46.40
2019-03-26T11:29:10.786Z,47.96
2019-03-26T11:31:42.099Z,47.37
2019-03-26T11:34:13.493Z,47.62
2019-03-26T11:36:44.721Z,46.49
2019-03-26T11:39:16.061Z,45.76
2019-03-26T11:41:47.416Z,44.86
2019-03-26T11:44:18.774Z,45.08
2019-03-26T11:46:50.206Z,44.92
2019-03-26T11:49:21.608Z,44.55
2019-03-26T11:51:52.949Z,43.94
2019-03-26T11:54:24.295Z,45.16
2019-03-26T11:56:55.724Z,45.82
2019-03-26T11:59:27.039Z,45.13
2019-03-26T12:01:59.443Z,41.67
2019-03-26T12:04:30.775Z,42.08
2019-03-26T12:07:02.293Z,42.79
2019-03-26T12:09:45.530Z,41.83
2019-03-26T12:12:06.959Z,41.95
2019-03-26T12:14:38.396Z,40.16
2019-03-26T12:17:09.742Z,37.54
2019-03-26T12:19:41.066Z,37.05
2019-03-26T12:22:12.295Z,36.28
2019-03-26T12:24:43.641Z,36.53
2019-03-26T12:27:15.027Z,36.54
2019-03-26T12:29:46.357Z,37.43
2019-03-26T12:32:17.737Z,36.44
2019-03-26T12:34:49.090Z,36.83
2019-03-26T12:37:20.414Z,36.26
2019-03-26T12:39:59.275Z,36.74
2019-03-26T12:42:24.886Z,36.75
2019-03-26T12:44:56.239Z,36.83
2019-03-26T12:47:27.590Z,36.22
2019-03-26T12:49:58.944Z,37.06
2019-03-26T12:52:30.209Z,37.79
2019-03-26T12:55:01.546Z,36.60
2019-03-26T12:57:32.964Z,36.65
2019-03-26T13:00:05.897Z,37.10
2019-03-26T13:02:37.208Z,37.61
2019-03-26T13:05:08.647Z,37.79
2019-03-26T13:07:39.971Z,37.86
2019-03-26T13:10:13.762Z,37.96
2019-03-26T13:12:44.755Z,38.35
2019-03-26T13:15:17.076Z,38.38
2019-03-26T13:17:48.422Z,38.37
2019-03-26T13:20:19.788Z,38.33
2019-03-26T13:22:51.265Z,38.13
2019-03-26T13:25:22.596Z,38.45
2019-03-26T13:27:53.835Z,38.97
2019-03-26T13:30:25.290Z,40.05
2019-03-26T13:32:56.554Z,40.12
2019-03-26T13:35:27.975Z,40.27
2019-03-26T13:37:59.341Z,39.99
2019-03-26T13:40:30.606Z,40.48
2019-03-26T13:43:01.943Z,39.49
2019-03-26T13:45:33.428Z,40.17
2019-03-26T13:48:04.758Z,40.54
2019-03-26T13:50:36.077Z,39.93
2019-03-26T13:53:07.326Z,40.68
2019-03-26T13:55:38.804Z,40.90
2019-03-26T13:58:10.119Z,40.64
2019-03-26T14:00:41.471Z,40.91
2019-03-26T14:03:12.816Z,40.35
2019-03-26T14:05:44.050Z,40.65
2019-03-26T14:08:15.377Z,39.88
2019-03-26T14:10:46.684Z,40.83
2019-03-26T14:13:18.114Z,40.83
2019-03-26T14:15:49.475Z,41.43
2019-03-26T14:18:20.889Z,41.13
2019-03-26T14:20:52.163Z,40.96
2019-03-26T14:23:23.523Z,40.76
2019-03-26T14:25:56.209Z,40.80
2019-03-26T14:28:27.653Z,40.89
2019-03-26T14:30:59.123Z,41.31
2019-03-26T14:33:30.364Z,41.09
2019-03-26T14:36:01.727Z,41.23
2019-03-26T14:38:33.076Z,41.47
2019-03-26T14:41:04.388Z,42.09
2019-03-26T14:43:35.737Z,41.83
2019-03-26T14:46:07.079Z,42.00
2019-03-26T14:48:39.171Z,42.42
2019-03-26T14:51:10.578Z,42.52
2019-03-26T14:53:41.908Z,42.92
2019-03-26T14:56:13.321Z,42.87
2019-03-26T14:58:44.708Z,42.86
2019-03-26T15:01:16.158Z,42.75
2019-03-26T15:03:47.465Z,43.15
2019-03-26T15:06:18.779Z,43.41
2019-03-26T15:08:51.514Z,43.63
2019-03-26T15:11:22.809Z,43.63
2019-03-26T15:13:54.127Z,43.29
2019-03-26T15:16:26.572Z,43.47
2019-03-26T15:18:57.955Z,43.95
2019-03-26T15:21:29.317Z,43.77
2019-03-26T15:24:00.653Z,43.53
2019-03-26T15:26:31.978Z,43.42
2019-03-26T15:29:03.317Z,43.73
2019-03-26T15:31:34.624Z,43.50
2019-03-26T15:34:05.944Z,44.58
2019-03-26T15:36:37.281Z,44.09
2019-03-26T15:39:09.313Z,43.68
2019-03-26T15:41:39.957Z,44.21
2019-03-26T15:44:10.938Z,44.17
2019-03-26T15:46:42.196Z,43.83
2019-03-26T15:49:13.475Z,44.26
2019-03-26T15:51:44.795Z,44.47
2019-03-26T15:54:16.197Z,44.69
2019-03-26T15:56:47.539Z,44.92
2019-03-26T15:59:18.922Z,45.25
2019-03-26T16:01:51.302Z,46.61
2019-03-26T16:04:22.649Z,49.42
2019-03-26T16:06:53.949Z,51.09
2019-03-26T16:09:25.273Z,51.84
2019-03-26T16:11:56.645Z,52.05
2019-03-26T16:14:28.361Z,53.02
2019-03-26T16:16:59.641Z,54.88
2019-03-26T16:19:32.848Z,55.52
2019-03-26T16:22:06.471Z,56.19
2019-03-26T16:24:39.874Z,56.29
2019-03-26T16:27:12.667Z,56.87
2019-03-26T16:29:44.049Z,56.82
2019-03-26T16:32:15.314Z,58.46
2019-03-26T16:34:46.599Z,58.53
2019-03-26T16:37:18.085Z,59.05
2019-03-26T16:39:49.423Z,59.11
2019-03-26T16:42:20.806Z,59.26
2019-03-26T16:44:52.136Z,59.49
2019-03-26T16:47:23.466Z,60.13
2019-03-26T16:49:54.817Z,59.96
2019-03-26T16:52:26.708Z,60.33
2019-03-26T16:54:58.328Z,60.22
2019-03-26T16:57:29.727Z,61.03
2019-03-26T17:00:01.075Z,60.74
2019-03-26T17:02:34.094Z,60.79
2019-03-26T17:05:06.537Z,62.31
2019-03-26T17:07:37.799Z,63.06
2019-03-26T17:10:09.204Z,63.18
2019-03-26T17:12:40.525Z,63.68
2019-03-26T17:15:11.848Z,64.12
2019-03-26T17:17:43.128Z,64.20
2019-03-26T17:20:14.558Z,65.19
2019-03-26T17:22:45.949Z,65.23
2019-03-26T17:25:17.324Z,65.16
2019-03-26T17:27:49.174Z,65.72
2019-03-26T17:30:20.411Z,65.24
2019-03-26T17:32:51.796Z,65.00
2019-03-26T17:35:23.094Z,65.07
2019-03-26T17:37:59.810Z,64.55
2019-03-26T17:40:27.557Z,64.77
2019-03-26T17:42:58.879Z,64.52
2019-03-26T17:45:30.159Z,64.13
2019-03-26T17:48:01.498Z,64.04
2019-03-26T17:50:32.847Z,63.71
2019-03-26T17:53:04.157Z,64.25
2019-03-26T17:55:35.476Z,64.25
2019-03-26T17:58:06.847Z,64.29
2019-03-26T18:00:40.995Z,64.33
2019-03-26T18:03:25.753Z,63.75
2019-03-26T18:05:45.437Z,63.67
2019-03-26T18:08:16.747Z,63.66
2019-03-26T18:10:48.113Z,64.31
2019-03-26T18:13:19.490Z,63.50
2019-03-26T18:15:50.901Z,62.98
2019-03-26T18:18:23.669Z,62.97
2019-03-26T18:20:54.942Z,63.09
2019-03-26T18:23:26.365Z,62.34
2019-03-26T18:25:57.687Z,62.17
2019-03-26T18:28:29.092Z,61.81
2019-03-26T18:31:00.493Z,62.50
2019-03-26T18:33:31.915Z,62.39
2019-03-26T18:36:03.168Z,61.99
2019-03-26T18:38:34.584Z,61.82
2019-03-26T18:41:05.993Z,60.86
2019-03-26T18:43:37.393Z,60.77
2019-03-26T18:46:08.838Z,60.84
2019-03-26T18:48:41.649Z,60.55
2019-03-26T18:51:13.180Z,60.68
2019-03-26T18:53:44.572Z,60.80
2019-03-26T18:56:16.009Z,60.79
2019-03-26T18:58:47.379Z,60.66
2019-03-26T19:01:18.767Z,60.56
2019-03-26T19:03:50.093Z,60.71
2019-03-26T19:06:21.420Z,60.98
2019-03-26T19:08:53.588Z,60.51
2019-03-26T19:11:24.916Z,60.96
2019-03-26T19:13:56.237Z,61.13
2019-03-26T19:16:27.610Z,61.10
2019-03-26T19:18:58.971Z,61.33
2019-03-26T19:21:30.324Z,61.34
2019-03-26T19:24:04.624Z,61.93
2019-03-26T19:26:36.293Z,61.81
2019-03-26T19:29:07.694Z,62.21
2019-03-26T19:31:39.101Z,62.33
2019-03-26T19:34:10.471Z,62.02
2019-03-26T19:36:41.778Z,62.57
2019-03-26T19:39:13.122Z,62.79
2019-03-26T19:41:44.432Z,62.95
2019-03-26T19:44:15.758Z,63.47
2019-03-26T19:46:47.174Z,62.91
2019-03-26T19:49:18.430Z,62.83
2019-03-26T19:51:49.754Z,62.97
2019-03-26T19:54:21.134Z,63.05
2019-03-26T19:56:52.546Z,63.31
2019-03-26T19:59:23.892Z,63.18
2019-03-26T20:01:55.251Z,63.24
2019-03-26T20:04:26.723Z,62.43
2019-03-26T20:06:58.132Z,62.71
2019-03-26T20:09:29.462Z,62.88
2019-03-26T20:12:00.772Z,62.58
2019-03-26T20:14:33.776Z,62.77
2019-03-26T20:17:05.084Z,62.58
2019-03-26T20:19:36.515Z,63.01
2019-03-26T20:22:08.126Z,62.47
2019-03-26T20:24:40.504Z,62.75
2019-03-26T20:27:11.873Z,62.44
2019-03-26T20:29:43.170Z,62.69
2019-03-26T20:32:14.503Z,62.77
2019-03-26T20:34:45.887Z,62.89
2019-03-26T20:37:17.425Z,62.93
2019-03-26T20:39:48.741Z,62.91
2019-03-26T20:42:20.181Z,62.98
2019-03-26T20:44:51.514Z,63.37
2019-03-26T20:47:22.904Z,62.98
2019-03-26T20:49:54.268Z,63.21
2019-03-26T20:52:25.599Z,63.09
2019-03-26T20:54:56.922Z,63.17
2019-03-26T20:57:28.298Z,62.96
2019-03-26T20:59:59.608Z,63.42
2019-03-26T21:02:30.965Z,63.22
2019-03-26T21:05:02.388Z,63.33
2019-03-26T21:07:33.701Z,63.00
2019-03-26T21:10:06.433Z,63.44
2019-03-26T21:12:37.844Z,63.48
2019-03-26T21:15:09.946Z,63.90
2019-03-26T21:17:41.344Z,63.83
2019-03-26T21:20:12.692Z,64.03
2019-03-26T21:22:44.079Z,64.24
2019-03-26T21:25:15.441Z,64.06
2019-03-26T21:27:47.072Z,64.25
2019-03-26T21:30:18.393Z,64.53
2019-03-26T21:32:49.773Z,64.57
2019-03-26T21:35:21.171Z,65.02
2019-03-26T21:37:52.536Z,65.04
2019-03-26T21:40:23.911Z,65.04
2019-03-26T21:42:55.250Z,65.14
2019-03-26T21:45:36.769Z,65.20
2019-03-26T21:48:08.223Z,65.49
2019-03-26T21:50:39.584Z,65.30
2019-03-26T21:53:10.932Z,65.44
2019-03-26T21:55:42.107Z,66.19
2019-03-26T21:58:13.500Z,65.64
2019-03-26T22:00:44.923Z,65.69
2019-03-26T22:03:16.252Z,65.55
2019-03-26T22:05:48.121Z,65.63
2019-03-26T22:08:19.816Z,65.62
2019-03-26T22:10:51.194Z,65.55
2019-03-26T22:13:22.525Z,65.53
2019-03-26T22:15:53.810Z,66.01
2019-03-26T22:18:26.606Z,65.56
2019-03-26T22:20:58.047Z,65.94
2019-03-26T22:23:29.423Z,65.92
2019-03-26T22:26:00.735Z,66.05
2019-03-26T22:28:31.986Z,65.86
2019-03-26T22:31:03.398Z,65.91
2019-03-26T22:33:34.767Z,66.00
2019-03-26T22:36:06.165Z,65.97
2019-03-26T22:38:37.470Z,66.12
2019-03-26T22:41:08.809Z,66.57
2019-03-26T22:43:41.279Z,66.43
2019-03-26T22:46:12.596Z,66.66
2019-03-26T22:48:43.967Z,66.74
2019-03-26T22:51:15.365Z,67.43
2019-03-26T22:53:46.639Z,66.74
2019-03-26T22:56:17.957Z,66.90
2019-03-26T22:58:49.395Z,66.95
2019-03-26T23:01:20.699Z,67.24
2019-03-26T23:03:51.999Z,67.32
2019-03-26T23:06:23.342Z,67.10
2019-03-26T23:08:54.620Z,67.10
2019-03-26T23:11:25.887Z,67.80
2019-03-26T23:13:57.209Z,67.04
2019-03-26T23:16:28.515Z,67.68
2019-03-26T23:18:59.893Z,67.71
2019-03-26T23:21:31.259Z,68.05
2019-03-26T23:24:02.574Z,67.91
2019-03-26T23:26:34.933Z,68.24
2019-03-26T23:29:08.028Z,68.54
2019-03-26T23:31:39.286Z,68.67
2019-03-26T23:34:10.776Z,69.30
2019-03-26T23:36:42.086Z,69.53
2019-03-26T23:39:13.347Z,69.87
2019-03-26T23:41:44.720Z,69.12
2019-03-26T23:44:25.687Z,69.64
2019-03-26T23:46:48.995Z,69.91
2019-03-26T23:49:20.370Z,69.36
2019-03-26T23:51:51.757Z,69.82
2019-03-26T23:54:23.084Z,69.89
2019-03-26T23:56:54.332Z,70.29
2019-03-26T23:59:25.510Z,70.48
